KNBG/NBG METAR and TAF weather

Enter ICAO airport designator
Station Type Date Time Source
KNBG METAR 2020/09/20 12:55 UTC NOAA

KNBG 201255Z 06019G26KT 5SM BR OVC009 22/22 A2994 RMK AO2 PK WND 05030/1237 RAB07E23 SLP137 T02220217 PNO $


Station Type Date Time Source
KNBG Decoded METAR 2020/09/20 12:55 UTC NOAA

NEW ORLEANS NAVAL AIR STN, LA, United States (KNBG) 29-50N 90-01W
Sep 20, 2020 - 08:55 AM EDT / 2020.09.20 1255 UTC
Wind: from the ENE (060 degrees) at 22 MPH (19 KT) gusting to 30 MPH (26 KT):0
Visibility: 5 mile(s):0
Sky conditions: overcast
Weather: mist
Temperature: 72.0 F (22.2 C)
Dew Point: 71.1 F (21.7 C)
Relative Humidity: 96%
Pressure (altimeter): 29.94 in. Hg (1013 hPa)
ob: KNBG 201255Z 06019G26KT 5SM BR OVC009 22/22 A2994 RMK AO2 PK WND 05030/1237 RAB07E23 SLP137 T02220217 PNO
cycle: 13

Station Type Date Time Source
KNBG TAF 2020/09/20 07:06 UTC NOAA

TAF KNBG 2007/2107 07015G25KT 9999 VCSH BKN015 OVC025 QNH2985INS
BECMG 2012/2014 09015G25KT 4800 RA BR BKN012 OVC025 QNH2989INS
TEMPO 2014/2020 3200 RA BKN008 OVC025
BECMG 2023/2101 09015G25KT 9999 VCSH BKN012 OVC025 QNH2987INS
TEMPO 2101/2106 4800 RA OVC012 AUTOMATED SENSOR METWATCH 2007 TIL 2013 T21/2012Z T24/2019Z FN00085

Example: see airport list